Regional Weather

 

KMKL - Jackson, TN, USA
Distance from station: WNW 50mi, 81km
Updated: Thu, Apr-09-2020 5:53pm CDT
Clear
Clear
 Wind from WNW
Wind: WNW 8 mph , 13 km/h
Temperature: 63°F , 17°C
Dew Point: 36°F , 2°C
Humidity: 37%
Barometer: 29.91 inHg , 1012.9 hPa
Clouds: Clear
Visibility: 10 miles , 16 km
2020/04/09 22:53 KMKL 092253Z 30007KT 10SM CLR 17/02 A2991 RMK AO2 SLP127 T01720017
KMEM - Memphis, TN, USA
Distance from station: W 108mi, 173km
Updated: Thu, Apr-09-2020 5:54pm CDT
Mostly cloudy
Mostly cloudy
 Wind from NNW
Wind: NNW 7 mph , 11 km/h
Temperature: 66°F , 19°C
Dew Point: 39°F , 4°C
Humidity: 37%
Barometer: 29.90 inHg , 1012.5 hPa
Clouds: Mostly cloudy
Visibility: 10 miles , 16 km
Cloud details: Few Clouds 18000 ft
Mostly cloudy 25000 ft
2020/04/09 22:54 KMEM 092254Z 33006KT 10SM FEW180 BKN250 19/04 A2990 RMK AO2 SLP123 T01890044
 
KBNA - Nashville, TN, USA
Distance from station: NE 97mi, 157km
Updated: Thu, Apr-09-2020 5:53pm CDT
Overcast
Overcast
 Wind from NW
Wind: NW 15 mph , 24 km/h, Gust: 29 mph , 46 km/h
Temperature: 64°F , 18°C
Dew Point: 27°F , -3°C
Humidity: 24%
Barometer: 29.83 inHg , 1010.2 hPa
Clouds: Overcast
Visibility: 10 miles , 16 km
Cloud details: Overcast 12000 ft
2020/04/09 22:53 KBNA 092253Z 31013G25KT 10SM OVC120 18/M03 A2983 RMK AO2 SLP098 T01831033
KCKV - Clarksville, TN, USA
Distance from station: NNE 99mi, 159km
Updated: Thu, Apr-09-2020 5:52pm CDT
Clear
Clear
 Wind from W
Wind: W 16 mph , 26 km/h, Gust: 26 mph , 43 km/h
Temperature: 63°F , 17°C
Dew Point: 32°F , 0°C
Humidity: 32%
Barometer: 29.84 inHg , 1010.5 hPa
Clouds: Clear
Visibility: 10 miles , 16 km
2020/04/09 22:52 KCKV 092252Z AUTO 28014G23KT 10SM CLR 17/00 A2984 RMK AO2 SLP104 T01670000
 
KPAH - Paducah, KY, USA
Distance from station: NNW 128mi, 205km
Updated: Thu, Apr-09-2020 5:53pm CDT
Few Clouds
Few Clouds
 Wind from WNW
Wind: WNW 8 mph , 13 km/h, Gust: 21 mph , 33 km/h
Temperature: 63°F , 17°C
Dew Point: 28°F , -2°C
Humidity: 27%
Barometer: 29.85 inHg , 1010.8 hPa
Clouds: Few Clouds
Visibility: 10 miles , 16 km
Cloud details: Few Clouds 12000 ft
2020/04/09 22:53 KPAH 092253Z 29007G18KT 10SM FEW120 17/M02 A2985 RMK AO2 SLP107 T01721017
KCHA - Chattanooga, TN, USA
Distance from station: E 165mi, 265km
Updated: Thu, Apr-09-2020 5:53pm CDT
Mostly cloudy
Mostly cloudy
 Wind from W
Wind: W 13 mph , 20 km/h, Gust: 23 mph , 37 km/h
Temperature: 70°F , 21°C
Dew Point: 28°F , -2°C
Humidity: 21%
Barometer: 29.80 inHg , 1009.1 hPa
Clouds: Mostly cloudy
Visibility: 10 miles , 16 km
Cloud details: Mostly cloudy 25000 ft
2020/04/09 22:53 KCHA 092253Z 28011G20KT 10SM BKN250 21/M02 A2980 RMK AO2 SLP086 T02111017
 
KTYS - Knoxville, TN, USA
Distance from station: E 234mi, 377km
Updated: Thu, Apr-09-2020 5:53pm CDT
Mostly cloudy
Mostly cloudy
 Wind from WSW
Wind: WSW 20 mph , 31 km/h, Gust: 29 mph , 46 km/h
Temperature: 64°F , 18°C
Dew Point: 30°F , -1°C
Humidity: 28%
Barometer: 29.73 inHg , 1006.8 hPa
Clouds: Mostly cloudy
Visibility: 10 miles , 16 km
Cloud details: Partly cloudy 15000 ft
Mostly cloudy 25000 ft
2020/04/09 22:53 KTYS 092253Z 25017G25KT 10SM SCT150 BKN250 18/M01 A2973 RMK AO2 SLP061 T01831011
KLIT - Little Rock, AR, USA
Distance from station: W 240mi, 386km
Updated: Thu, Apr-09-2020 5:53pm CDT
Overcast
Overcast
 Wind from SSE
Wind: SSE 6 mph , 9 km/h
Temperature: 70°F , 21°C
Dew Point: 43°F , 6°C
Humidity: 38%
Barometer: 29.91 inHg , 1012.9 hPa
Clouds: Overcast
Visibility: 10 miles , 16 km
Cloud details: Overcast 25000 ft
2020/04/09 22:53 KLIT 092253Z 16005KT 10SM OVC250 21/06 A2991 RMK AO2 SLP128 T02060061

Refresh Page for latest data.